sensor_id;sensor_type;location;lat;lon;timestamp;P1;durP1;ratioP1;P2;durP2;ratioP2
51718;SDS011;37795;53.236;5.704;2022-08-04T00:01:48;10.82;;;5.13;;
51718;SDS011;37795;53.236;5.704;2022-08-04T00:04:12;7.95;;;4.53;;
51718;SDS011;37795;53.236;5.704;2022-08-04T00:09:27;7.67;;;4.50;;
51718;SDS011;37795;53.236;5.704;2022-08-04T00:11:54;10.30;;;4.60;;
51718;SDS011;37795;53.236;5.704;2022-08-04T00:14:22;6.53;;;4.72;;
51718;SDS011;37795;53.236;5.704;2022-08-04T00:16:49;7.35;;;4.82;;
51718;SDS011;37795;53.236;5.704;2022-08-04T00:19:23;6.27;;;4.83;;
51718;SDS011;37795;53.236;5.704;2022-08-04T00:21:55;7.78;;;3.92;;
51718;SDS011;37795;53.236;5.704;2022-08-04T00:24:21;10.02;;;4.05;;
51718;SDS011;37795;53.236;5.704;2022-08-04T00:26:47;7.95;;;4.10;;
51718;SDS011;37795;53.236;5.704;2022-08-04T00:29:13;10.52;;;4.95;;
51718;SDS011;37795;53.236;5.704;2022-08-04T00:31:40;10.88;;;4.53;;
51718;SDS011;37795;53.236;5.704;2022-08-04T00:34:09;8.65;;;4.05;;
51718;SDS011;37795;53.236;5.704;2022-08-04T00:36:38;8.73;;;4.63;;
51718;SDS011;37795;53.236;5.704;2022-08-04T00:39:05;10.43;;;4.97;;
51718;SDS011;37795;53.236;5.704;2022-08-04T00:41:41;11.67;;;5.17;;
51718;SDS011;37795;53.236;5.704;2022-08-04T00:44:26;10.48;;;5.35;;
51718;SDS011;37795;53.236;5.704;2022-08-04T00:50:01;9.00;;;5.10;;
51718;SDS011;37795;53.236;5.704;2022-08-04T00:52:32;8.23;;;5.25;;
51718;SDS011;37795;53.236;5.704;2022-08-04T00:55:35;7.82;;;4.75;;
51718;SDS011;37795;53.236;5.704;2022-08-04T01:01:02;8.15;;;5.28;;
51718;SDS011;37795;53.236;5.704;2022-08-04T01:03:42;9.63;;;5.20;;
51718;SDS011;37795;53.236;5.704;2022-08-04T01:14:21;12.27;;;5.80;;
51718;SDS011;37795;53.236;5.704;2022-08-04T01:16:52;8.48;;;5.15;;
51718;SDS011;37795;53.236;5.704;2022-08-04T01:21:58;10.23;;;4.90;;
51718;SDS011;37795;53.236;5.704;2022-08-04T01:29:55;9.75;;;5.40;;
51718;SDS011;37795;53.236;5.704;2022-08-04T01:40:01;10.52;;;5.65;;
51718;SDS011;37795;53.236;5.704;2022-08-04T01:42:30;10.13;;;4.83;;
51718;SDS011;37795;53.236;5.704;2022-08-04T01:44:56;7.32;;;5.35;;
51718;SDS011;37795;53.236;5.704;2022-08-04T01:47:23;7.95;;;5.05;;
51718;SDS011;37795;53.236;5.704;2022-08-04T01:49:53;8.63;;;5.23;;
51718;SDS011;37795;53.236;5.704;2022-08-04T01:52:20;8.60;;;5.03;;
51718;SDS011;37795;53.236;5.704;2022-08-04T01:54:47;8.38;;;4.78;;
51718;SDS011;37795;53.236;5.704;2022-08-04T01:57:14;11.38;;;6.65;;
51718;SDS011;37795;53.236;5.704;2022-08-04T01:59:42;13.82;;;5.60;;
51718;SDS011;37795;53.236;5.704;2022-08-04T02:02:10;7.55;;;5.20;;
51718;SDS011;37795;53.236;5.704;2022-08-04T02:04:36;13.80;;;6.30;;
51718;SDS011;37795;53.236;5.704;2022-08-04T02:07:07;7.75;;;5.18;;
51718;SDS011;37795;53.236;5.704;2022-08-04T02:15:02;6.32;;;4.90;;
51718;SDS011;37795;53.236;5.704;2022-08-04T02:20:22;9.40;;;5.75;;
51718;SDS011;37795;53.236;5.704;2022-08-04T02:22:52;9.60;;;5.53;;
51718;SDS011;37795;53.236;5.704;2022-08-04T02:25:24;11.82;;;5.63;;
51718;SDS011;37795;53.236;5.704;2022-08-04T02:30:39;10.85;;;6.35;;
51718;SDS011;37795;53.236;5.704;2022-08-04T02:33:08;8.00;;;5.53;;
51718;SDS011;37795;53.236;5.704;2022-08-04T02:35:37;9.55;;;5.60;;
51718;SDS011;37795;53.236;5.704;2022-08-04T02:38:05;6.50;;;4.40;;
51718;SDS011;37795;53.236;5.704;2022-08-04T02:40:36;7.22;;;5.20;;
51718;SDS011;37795;53.236;5.704;2022-08-04T02:43:03;11.75;;;5.55;;
51718;SDS011;37795;53.236;5.704;2022-08-04T02:45:31;9.18;;;5.78;;
51718;SDS011;37795;53.236;5.704;2022-08-04T02:48:01;11.63;;;5.18;;
51718;SDS011;37795;53.236;5.704;2022-08-04T02:50:28;6.90;;;5.22;;
51718;SDS011;37795;53.236;5.704;2022-08-04T02:52:57;12.57;;;6.05;;
51718;SDS011;37795;53.236;5.704;2022-08-04T02:55:24;12.88;;;5.68;;
51718;SDS011;37795;53.236;5.704;2022-08-04T02:57:52;7.25;;;6.07;;
51718;SDS011;37795;53.236;5.704;2022-08-04T03:00:19;7.82;;;5.07;;
51718;SDS011;37795;53.236;5.704;2022-08-04T03:02:50;15.60;;;5.80;;
51718;SDS011;37795;53.236;5.704;2022-08-04T03:05:24;9.60;;;5.82;;
51718;SDS011;37795;53.236;5.704;2022-08-04T03:13:36;10.40;;;5.60;;
51718;SDS011;37795;53.236;5.704;2022-08-04T03:34:45;10.57;;;5.75;;
51718;SDS011;37795;53.236;5.704;2022-08-04T03:42:45;10.27;;;6.45;;
51718;SDS011;37795;53.236;5.704;2022-08-04T04:09:27;9.00;;;5.67;;
51718;SDS011;37795;53.236;5.704;2022-08-04T04:19:53;10.15;;;5.95;;
51718;SDS011;37795;53.236;5.704;2022-08-04T04:27:35;12.15;;;6.57;;
51718;SDS011;37795;53.236;5.704;2022-08-04T04:30:04;8.50;;;5.90;;
51718;SDS011;37795;53.236;5.704;2022-08-04T04:35:20;7.78;;;6.85;;
51718;SDS011;37795;53.236;5.704;2022-08-04T04:48:11;9.85;;;6.97;;
51718;SDS011;37795;53.236;5.704;2022-08-04T04:50:55;9.55;;;6.07;;
51718;SDS011;37795;53.236;5.704;2022-08-04T04:58:38;11.88;;;8.00;;
51718;SDS011;37795;53.236;5.704;2022-08-04T05:11:20;13.82;;;7.25;;
51718;SDS011;37795;53.236;5.704;2022-08-04T05:13:53;10.43;;;6.65;;
51718;SDS011;37795;53.236;5.704;2022-08-04T05:17:05;9.45;;;6.40;;
51718;SDS011;37795;53.236;5.704;2022-08-04T05:21:44;10.05;;;6.70;;
51718;SDS011;37795;53.236;5.704;2022-08-04T05:24:12;16.25;;;7.43;;
51718;SDS011;37795;53.236;5.704;2022-08-04T05:26:49;12.60;;;6.53;;
51718;SDS011;37795;53.236;5.704;2022-08-04T05:29:25;11.73;;;7.28;;
51718;SDS011;37795;53.236;5.704;2022-08-04T05:31:52;11.27;;;7.30;;
51718;SDS011;37795;53.236;5.704;2022-08-04T05:34:27;10.30;;;6.80;;
51718;SDS011;37795;53.236;5.704;2022-08-04T05:36:57;12.35;;;7.78;;
51718;SDS011;37795;53.236;5.704;2022-08-04T05:39:26;10.55;;;7.10;;
51718;SDS011;37795;53.236;5.704;2022-08-04T05:41:53;11.98;;;7.32;;
51718;SDS011;37795;53.236;5.704;2022-08-04T05:44:20;10.98;;;6.45;;
51718;SDS011;37795;53.236;5.704;2022-08-04T05:46:47;9.70;;;5.70;;
51718;SDS011;37795;53.236;5.704;2022-08-04T05:49:14;8.93;;;6.05;;
51718;SDS011;37795;53.236;5.704;2022-08-04T05:51:41;11.23;;;6.97;;
51718;SDS011;37795;53.236;5.704;2022-08-04T05:54:08;11.80;;;7.68;;
51718;SDS011;37795;53.236;5.704;2022-08-04T05:56:35;12.30;;;7.65;;
51718;SDS011;37795;53.236;5.704;2022-08-04T05:59:03;12.68;;;7.38;;
51718;SDS011;37795;53.236;5.704;2022-08-04T06:01:30;13.45;;;7.72;;
51718;SDS011;37795;53.236;5.704;2022-08-04T06:03:57;9.48;;;6.90;;
51718;SDS011;37795;53.236;5.704;2022-08-04T06:06:24;10.68;;;7.20;;
51718;SDS011;37795;53.236;5.704;2022-08-04T06:08:51;10.20;;;6.32;;
51718;SDS011;37795;53.236;5.704;2022-08-04T06:11:18;9.70;;;7.15;;
51718;SDS011;37795;53.236;5.704;2022-08-04T06:13:55;10.45;;;6.68;;
51718;SDS011;37795;53.236;5.704;2022-08-04T06:16:22;13.98;;;7.30;;
51718;SDS011;37795;53.236;5.704;2022-08-04T06:18:50;8.50;;;5.70;;
51718;SDS011;37795;53.236;5.704;2022-08-04T06:21:21;10.43;;;6.55;;
51718;SDS011;37795;53.236;5.704;2022-08-04T06:23:48;12.50;;;6.60;;
51718;SDS011;37795;53.236;5.704;2022-08-04T06:26:15;9.38;;;6.10;;
51718;SDS011;37795;53.236;5.704;2022-08-04T06:28:47;10.13;;;5.88;;
51718;SDS011;37795;53.236;5.704;2022-08-04T06:31:14;7.93;;;5.40;;
51718;SDS011;37795;53.236;5.704;2022-08-04T06:33:56;8.13;;;5.53;;
51718;SDS011;37795;53.236;5.704;2022-08-04T06:36:22;9.55;;;5.70;;
51718;SDS011;37795;53.236;5.704;2022-08-04T06:38:49;6.63;;;4.72;;
51718;SDS011;37795;53.236;5.704;2022-08-04T06:41:15;7.03;;;5.37;;
51718;SDS011;37795;53.236;5.704;2022-08-04T06:43:41;12.18;;;5.25;;
51718;SDS011;37795;53.236;5.704;2022-08-04T06:46:08;8.65;;;5.07;;
51718;SDS011;37795;53.236;5.704;2022-08-04T06:51:57;10.63;;;6.10;;
51718;SDS011;37795;53.236;5.704;2022-08-04T06:54:23;9.20;;;4.97;;
51718;SDS011;37795;53.236;5.704;2022-08-04T06:56:49;8.82;;;5.32;;
51718;SDS011;37795;53.236;5.704;2022-08-04T06:59:16;7.28;;;5.05;;
51718;SDS011;37795;53.236;5.704;2022-08-04T07:01:43;10.65;;;5.15;;
51718;SDS011;37795;53.236;5.704;2022-08-04T07:04:10;6.43;;;4.68;;
51718;SDS011;37795;53.236;5.704;2022-08-04T07:06:37;7.43;;;4.73;;
51718;SDS011;37795;53.236;5.704;2022-08-04T07:09:04;9.35;;;4.68;;
51718;SDS011;37795;53.236;5.704;2022-08-04T07:11:31;9.55;;;5.10;;
51718;SDS011;37795;53.236;5.704;2022-08-04T07:13:58;9.57;;;3.75;;
51718;SDS011;37795;53.236;5.704;2022-08-04T07:16:24;6.60;;;3.83;;
51718;SDS011;37795;53.236;5.704;2022-08-04T07:18:50;6.68;;;3.58;;
51718;SDS011;37795;53.236;5.704;2022-08-04T07:21:20;5.70;;;3.67;;
51718;SDS011;37795;53.236;5.704;2022-08-04T07:23:47;5.05;;;3.70;;
51718;SDS011;37795;53.236;5.704;2022-08-04T07:26:13;7.43;;;3.67;;
51718;SDS011;37795;53.236;5.704;2022-08-04T07:28:41;7.43;;;3.80;;
51718;SDS011;37795;53.236;5.704;2022-08-04T07:31:15;10.38;;;4.00;;
51718;SDS011;37795;53.236;5.704;2022-08-04T07:33:42;7.13;;;3.42;;
51718;SDS011;37795;53.236;5.704;2022-08-04T07:36:09;5.10;;;3.10;;
51718;SDS011;37795;53.236;5.704;2022-08-04T07:38:35;8.38;;;3.30;;
51718;SDS011;37795;53.236;5.704;2022-08-04T07:41:01;5.78;;;2.90;;
51718;SDS011;37795;53.236;5.704;2022-08-04T07:43:29;7.80;;;2.92;;
51718;SDS011;37795;53.236;5.704;2022-08-04T07:45:56;4.40;;;2.20;;
51718;SDS011;37795;53.236;5.704;2022-08-04T07:48:22;8.60;;;2.90;;
51718;SDS011;37795;53.236;5.704;2022-08-04T07:50:49;6.22;;;2.60;;
51718;SDS011;37795;53.236;5.704;2022-08-04T07:53:15;6.70;;;3.20;;
51718;SDS011;37795;53.236;5.704;2022-08-04T07:55:45;6.75;;;2.50;;
51718;SDS011;37795;53.236;5.704;2022-08-04T07:58:11;7.05;;;2.60;;
51718;SDS011;37795;53.236;5.704;2022-08-04T08:00:38;6.57;;;2.58;;
51718;SDS011;37795;53.236;5.704;2022-08-04T08:03:04;6.45;;;2.35;;
51718;SDS011;37795;53.236;5.704;2022-08-04T08:05:31;4.90;;;2.45;;
51718;SDS011;37795;53.236;5.704;2022-08-04T08:07:57;6.10;;;2.50;;
51718;SDS011;37795;53.236;5.704;2022-08-04T08:10:24;7.53;;;2.80;;
51718;SDS011;37795;53.236;5.704;2022-08-04T08:12:50;4.85;;;2.38;;
51718;SDS011;37795;53.236;5.704;2022-08-04T08:15:17;5.28;;;2.17;;
51718;SDS011;37795;53.236;5.704;2022-08-04T08:17:43;8.85;;;2.40;;
51718;SDS011;37795;53.236;5.704;2022-08-04T08:20:09;6.40;;;2.33;;
51718;SDS011;37795;53.236;5.704;2022-08-04T08:22:36;6.45;;;2.10;;
51718;SDS011;37795;53.236;5.704;2022-08-04T08:25:04;3.38;;;1.75;;
51718;SDS011;37795;53.236;5.704;2022-08-04T08:27:30;4.03;;;1.90;;
51718;SDS011;37795;53.236;5.704;2022-08-04T08:29:56;7.10;;;2.42;;
51718;SDS011;37795;53.236;5.704;2022-08-04T08:32:23;2.43;;;1.80;;
51718;SDS011;37795;53.236;5.704;2022-08-04T08:34:49;5.40;;;2.28;;
51718;SDS011;37795;53.236;5.704;2022-08-04T08:42:27;1.83;;;1.37;;
51718;SDS011;37795;53.236;5.704;2022-08-04T08:47:48;2.08;;;1.70;;
51718;SDS011;37795;53.236;5.704;2022-08-04T08:52:51;4.60;;;1.75;;
51718;SDS011;37795;53.236;5.704;2022-08-04T08:55:27;4.13;;;1.48;;
51718;SDS011;37795;53.236;5.704;2022-08-04T08:58:00;4.03;;;1.80;;
51718;SDS011;37795;53.236;5.704;2022-08-04T09:05:42;4.45;;;1.70;;
51718;SDS011;37795;53.236;5.704;2022-08-04T09:11:05;2.28;;;1.30;;
51718;SDS011;37795;53.236;5.704;2022-08-04T09:13:51;2.90;;;1.90;;
51718;SDS011;37795;53.236;5.704;2022-08-04T09:40:09;2.88;;;1.70;;
51718;SDS011;37795;53.236;5.704;2022-08-04T09:42:49;2.67;;;1.60;;
51718;SDS011;37795;53.236;5.704;2022-08-04T09:45:26;3.33;;;1.90;;
51718;SDS011;37795;53.236;5.704;2022-08-04T09:48:04;2.78;;;1.80;;
51718;SDS011;37795;53.236;5.704;2022-08-04T09:50:38;4.33;;;1.93;;
51718;SDS011;37795;53.236;5.704;2022-08-04T10:00:50;3.58;;;1.88;;
51718;SDS011;37795;53.236;5.704;2022-08-04T10:03:18;3.08;;;1.73;;
51718;SDS011;37795;53.236;5.704;2022-08-04T10:11:02;3.88;;;2.30;;
51718;SDS011;37795;53.236;5.704;2022-08-04T10:21:03;4.30;;;1.97;;
51718;SDS011;37795;53.236;5.704;2022-08-04T10:26:19;3.53;;;1.67;;
51718;SDS011;37795;53.236;5.704;2022-08-04T10:28:52;4.10;;;1.65;;
51718;SDS011;37795;53.236;5.704;2022-08-04T10:31:23;2.70;;;1.80;;
51718;SDS011;37795;53.236;5.704;2022-08-04T10:33:53;2.20;;;1.40;;
51718;SDS011;37795;53.236;5.704;2022-08-04T10:36:21;3.53;;;1.50;;
51718;SDS011;37795;53.236;5.704;2022-08-04T10:38:55;4.00;;;1.83;;
51718;SDS011;37795;53.236;5.704;2022-08-04T10:46:46;3.20;;;1.65;;
51718;SDS011;37795;53.236;5.704;2022-08-04T10:52:00;3.23;;;1.60;;
51718;SDS011;37795;53.236;5.704;2022-08-04T10:54:42;3.43;;;1.87;;
51718;SDS011;37795;53.236;5.704;2022-08-04T11:00:00;3.83;;;2.00;;
51718;SDS011;37795;53.236;5.704;2022-08-04T11:07:59;4.40;;;1.98;;
51718;SDS011;37795;53.236;5.704;2022-08-04T11:10:28;2.08;;;1.30;;
51718;SDS011;37795;53.236;5.704;2022-08-04T11:12:56;4.57;;;1.80;;
51718;SDS011;37795;53.236;5.704;2022-08-04T11:15:26;3.47;;;1.65;;
51718;SDS011;37795;53.236;5.704;2022-08-04T11:17:54;3.45;;;1.58;;
51718;SDS011;37795;53.236;5.704;2022-08-04T11:20:28;2.30;;;1.45;;
51718;SDS011;37795;53.236;5.704;2022-08-04T11:23:11;3.72;;;1.65;;
51718;SDS011;37795;53.236;5.704;2022-08-04T11:33:51;5.60;;;1.50;;
51718;SDS011;37795;53.236;5.704;2022-08-04T11:36:28;3.40;;;1.80;;
51718;SDS011;37795;53.236;5.704;2022-08-04T11:38:58;3.55;;;1.58;;
51718;SDS011;37795;53.236;5.704;2022-08-04T11:41:39;4.25;;;1.70;;
51718;SDS011;37795;53.236;5.704;2022-08-04T11:44:06;3.08;;;1.60;;
51718;SDS011;37795;53.236;5.704;2022-08-04T11:46:41;2.35;;;1.40;;
51718;SDS011;37795;53.236;5.704;2022-08-04T11:49:14;2.33;;;1.67;;
51718;SDS011;37795;53.236;5.704;2022-08-04T11:51:41;4.20;;;1.67;;
51718;SDS011;37795;53.236;5.704;2022-08-04T11:54:09;4.90;;;2.30;;
51718;SDS011;37795;53.236;5.704;2022-08-04T11:56:36;4.43;;;2.35;;
51718;SDS011;37795;53.236;5.704;2022-08-04T11:59:02;3.30;;;2.00;;
51718;SDS011;37795;53.236;5.704;2022-08-04T12:07:01;4.03;;;1.70;;
51718;SDS011;37795;53.236;5.704;2022-08-04T12:12:26;4.00;;;2.17;;
51718;SDS011;37795;53.236;5.704;2022-08-04T12:17:41;7.53;;;2.53;;
51718;SDS011;37795;53.236;5.704;2022-08-04T12:20:09;7.95;;;2.60;;
51718;SDS011;37795;53.236;5.704;2022-08-04T12:22:40;6.97;;;2.90;;
51718;SDS011;37795;53.236;5.704;2022-08-04T12:25:09;6.47;;;3.05;;
51718;SDS011;37795;53.236;5.704;2022-08-04T12:30:07;7.85;;;3.08;;
51718;SDS011;37795;53.236;5.704;2022-08-04T12:35:06;10.95;;;3.53;;
51718;SDS011;37795;53.236;5.704;2022-08-04T12:37:43;6.70;;;2.70;;
51718;SDS011;37795;53.236;5.704;2022-08-04T12:40:14;8.50;;;3.07;;
51718;SDS011;37795;53.236;5.704;2022-08-04T12:42:44;7.80;;;3.30;;
51718;SDS011;37795;53.236;5.704;2022-08-04T12:45:10;8.40;;;3.08;;
51718;SDS011;37795;53.236;5.704;2022-08-04T12:47:37;7.70;;;3.10;;
51718;SDS011;37795;53.236;5.704;2022-08-04T12:50:05;9.18;;;3.65;;
51718;SDS011;37795;53.236;5.704;2022-08-04T12:52:41;7.97;;;2.83;;
51718;SDS011;37795;53.236;5.704;2022-08-04T12:55:08;6.13;;;2.63;;
51718;SDS011;37795;53.236;5.704;2022-08-04T12:57:35;5.90;;;2.70;;
51718;SDS011;37795;53.236;5.704;2022-08-04T13:00:02;8.38;;;3.72;;
51718;SDS011;37795;53.236;5.704;2022-08-04T13:02:30;7.93;;;3.40;;
51718;SDS011;37795;53.236;5.704;2022-08-04T13:04:59;5.93;;;3.10;;
51718;SDS011;37795;53.236;5.704;2022-08-04T13:07:27;6.55;;;3.47;;
51718;SDS011;37795;53.236;5.704;2022-08-04T13:10:02;7.30;;;3.08;;
51718;SDS011;37795;53.236;5.704;2022-08-04T13:12:30;8.43;;;3.13;;
51718;SDS011;37795;53.236;5.704;2022-08-04T13:14:58;8.82;;;3.35;;
51718;SDS011;37795;53.236;5.704;2022-08-04T13:17:25;5.63;;;2.92;;
51718;SDS011;37795;53.236;5.704;2022-08-04T13:19:51;6.50;;;2.87;;
51718;SDS011;37795;53.236;5.704;2022-08-04T13:22:22;5.25;;;2.70;;
51718;SDS011;37795;53.236;5.704;2022-08-04T13:24:49;4.10;;;2.10;;
51718;SDS011;37795;53.236;5.704;2022-08-04T13:27:16;5.28;;;2.20;;
51718;SDS011;37795;53.236;5.704;2022-08-04T13:29:44;3.93;;;2.40;;
51718;SDS011;37795;53.236;5.704;2022-08-04T13:32:15;4.95;;;2.25;;
51718;SDS011;37795;53.236;5.704;2022-08-04T13:34:42;3.40;;;2.45;;
51718;SDS011;37795;53.236;5.704;2022-08-04T13:37:08;4.55;;;2.20;;
51718;SDS011;37795;53.236;5.704;2022-08-04T13:39:35;3.15;;;1.92;;
51718;SDS011;37795;53.236;5.704;2022-08-04T13:42:02;3.67;;;2.35;;
51718;SDS011;37795;53.236;5.704;2022-08-04T13:44:36;3.50;;;2.00;;
51718;SDS011;37795;53.236;5.704;2022-08-04T13:47:09;3.90;;;1.92;;
51718;SDS011;37795;53.236;5.704;2022-08-04T13:49:37;1.83;;;1.40;;
51718;SDS011;37795;53.236;5.704;2022-08-04T13:52:04;2.63;;;1.60;;
51718;SDS011;37795;53.236;5.704;2022-08-04T13:54:37;2.25;;;1.40;;
51718;SDS011;37795;53.236;5.704;2022-08-04T13:57:05;4.20;;;1.40;;
51718;SDS011;37795;53.236;5.704;2022-08-04T13:59:35;2.60;;;1.38;;
51718;SDS011;37795;53.236;5.704;2022-08-04T14:02:04;2.35;;;1.63;;
51718;SDS011;37795;53.236;5.704;2022-08-04T14:04:33;3.38;;;1.25;;
51718;SDS011;37795;53.236;5.704;2022-08-04T14:07:09;2.47;;;1.50;;
51718;SDS011;37795;53.236;5.704;2022-08-04T14:09:37;3.17;;;1.52;;
51718;SDS011;37795;53.236;5.704;2022-08-04T14:12:11;3.97;;;1.65;;
51718;SDS011;37795;53.236;5.704;2022-08-04T14:14:48;1.90;;;1.20;;
51718;SDS011;37795;53.236;5.704;2022-08-04T14:17:15;4.03;;;1.50;;
51718;SDS011;37795;53.236;5.704;2022-08-04T14:19:54;2.50;;;1.50;;
51718;SDS011;37795;53.236;5.704;2022-08-04T14:27:29;1.42;;;1.20;;
51718;SDS011;37795;53.236;5.704;2022-08-04T14:29:55;2.83;;;1.45;;
51718;SDS011;37795;53.236;5.704;2022-08-04T14:32:21;3.20;;;1.40;;
51718;SDS011;37795;53.236;5.704;2022-08-04T14:34:48;1.70;;;1.10;;
51718;SDS011;37795;53.236;5.704;2022-08-04T14:37:15;3.90;;;1.70;;
51718;SDS011;37795;53.236;5.704;2022-08-04T14:39:47;3.55;;;1.80;;
51718;SDS011;37795;53.236;5.704;2022-08-04T14:42:14;5.23;;;1.40;;
51718;SDS011;37795;53.236;5.704;2022-08-04T14:44:54;5.15;;;1.58;;
51718;SDS011;37795;53.236;5.704;2022-08-04T14:50:05;3.07;;;1.50;;
51718;SDS011;37795;53.236;5.704;2022-08-04T14:52:31;3.03;;;1.58;;
51718;SDS011;37795;53.236;5.704;2022-08-04T14:54:57;3.28;;;1.60;;
51718;SDS011;37795;53.236;5.704;2022-08-04T14:57:39;5.00;;;1.85;;
51718;SDS011;37795;53.236;5.704;2022-08-04T15:00:05;3.87;;;1.37;;
51718;SDS011;37795;53.236;5.704;2022-08-04T15:02:32;4.15;;;1.40;;
51718;SDS011;37795;53.236;5.704;2022-08-04T15:05:00;3.88;;;1.55;;
51718;SDS011;37795;53.236;5.704;2022-08-04T15:07:27;4.83;;;1.70;;
51718;SDS011;37795;53.236;5.704;2022-08-04T15:09:53;4.18;;;1.92;;
51718;SDS011;37795;53.236;5.704;2022-08-04T15:12:20;3.88;;;1.58;;
51718;SDS011;37795;53.236;5.704;2022-08-04T15:14:46;2.27;;;1.50;;
51718;SDS011;37795;53.236;5.704;2022-08-04T15:17:12;2.75;;;1.67;;
51718;SDS011;37795;53.236;5.704;2022-08-04T15:19:39;4.73;;;1.57;;
51718;SDS011;37795;53.236;5.704;2022-08-04T15:22:05;2.00;;;1.35;;
51718;SDS011;37795;53.236;5.704;2022-08-04T15:24:32;2.33;;;1.42;;
51718;SDS011;37795;53.236;5.704;2022-08-04T15:26:58;2.75;;;1.40;;
51718;SDS011;37795;53.236;5.704;2022-08-04T15:29:29;3.90;;;1.33;;
51718;SDS011;37795;53.236;5.704;2022-08-04T15:31:57;3.67;;;1.48;;
51718;SDS011;37795;53.236;5.704;2022-08-04T15:34:27;2.65;;;1.15;;
51718;SDS011;37795;53.236;5.704;2022-08-04T15:37:07;2.33;;;1.48;;
51718;SDS011;37795;53.236;5.704;2022-08-04T15:39:37;4.80;;;1.27;;
51718;SDS011;37795;53.236;5.704;2022-08-04T15:44:57;2.33;;;1.38;;
51718;SDS011;37795;53.236;5.704;2022-08-04T15:47:23;6.18;;;1.85;;
51718;SDS011;37795;53.236;5.704;2022-08-04T15:50:04;3.60;;;1.48;;
51718;SDS011;37795;53.236;5.704;2022-08-04T15:52:57;6.15;;;1.63;;
51718;SDS011;37795;53.236;5.704;2022-08-04T15:58:04;3.33;;;1.50;;
51718;SDS011;37795;53.236;5.704;2022-08-04T16:16:30;2.03;;;1.40;;
51718;SDS011;37795;53.236;5.704;2022-08-04T16:19:03;4.25;;;1.48;;
51718;SDS011;37795;53.236;5.704;2022-08-04T16:21:31;3.60;;;1.45;;
51718;SDS011;37795;53.236;5.704;2022-08-04T16:26:40;1.80;;;1.33;;
51718;SDS011;37795;53.236;5.704;2022-08-04T16:34:29;3.03;;;1.60;;
51718;SDS011;37795;53.236;5.704;2022-08-04T16:36:57;4.10;;;1.40;;
51718;SDS011;37795;53.236;5.704;2022-08-04T16:39:23;2.35;;;1.38;;
51718;SDS011;37795;53.236;5.704;2022-08-04T16:41:49;3.45;;;1.60;;
51718;SDS011;37795;53.236;5.704;2022-08-04T16:44:27;2.00;;;1.30;;
51718;SDS011;37795;53.236;5.704;2022-08-04T16:46:54;3.97;;;1.50;;
51718;SDS011;37795;53.236;5.704;2022-08-04T16:49:20;3.85;;;1.55;;
51718;SDS011;37795;53.236;5.704;2022-08-04T16:51:47;3.97;;;1.50;;
51718;SDS011;37795;53.236;5.704;2022-08-04T16:54:14;7.20;;;1.90;;
51718;SDS011;37795;53.236;5.704;2022-08-04T16:56:40;2.60;;;1.42;;
51718;SDS011;37795;53.236;5.704;2022-08-04T16:59:10;4.05;;;1.38;;
51718;SDS011;37795;53.236;5.704;2022-08-04T17:01:36;3.53;;;1.45;;
51718;SDS011;37795;53.236;5.704;2022-08-04T17:04:03;3.33;;;1.85;;
51718;SDS011;37795;53.236;5.704;2022-08-04T17:06:33;4.65;;;1.60;;
51718;SDS011;37795;53.236;5.704;2022-08-04T17:09:03;4.10;;;1.70;;
51718;SDS011;37795;53.236;5.704;2022-08-04T17:11:29;6.22;;;1.85;;
51718;SDS011;37795;53.236;5.704;2022-08-04T17:13:59;5.10;;;1.80;;
51718;SDS011;37795;53.236;5.704;2022-08-04T17:16:25;4.43;;;1.67;;
51718;SDS011;37795;53.236;5.704;2022-08-04T17:18:54;3.33;;;1.83;;
51718;SDS011;37795;53.236;5.704;2022-08-04T17:21:21;5.78;;;1.83;;
51718;SDS011;37795;53.236;5.704;2022-08-04T17:23:48;3.10;;;1.83;;
51718;SDS011;37795;53.236;5.704;2022-08-04T17:26:20;5.07;;;2.08;;
51718;SDS011;37795;53.236;5.704;2022-08-04T17:28:47;4.38;;;2.03;;
51718;SDS011;37795;53.236;5.704;2022-08-04T17:31:14;2.87;;;1.73;;
51718;SDS011;37795;53.236;5.704;2022-08-04T17:33:47;6.70;;;2.57;;
51718;SDS011;37795;53.236;5.704;2022-08-04T17:36:14;4.88;;;2.28;;
51718;SDS011;37795;53.236;5.704;2022-08-04T17:38:45;4.22;;;1.85;;
51718;SDS011;37795;53.236;5.704;2022-08-04T17:41:12;5.15;;;1.70;;
51718;SDS011;37795;53.236;5.704;2022-08-04T17:43:57;7.95;;;1.77;;
51718;SDS011;37795;53.236;5.704;2022-08-04T17:48:56;4.73;;;2.10;;
51718;SDS011;37795;53.236;5.704;2022-08-04T17:51:26;4.13;;;1.50;;
51718;SDS011;37795;53.236;5.704;2022-08-04T17:53:56;3.80;;;2.30;;
51718;SDS011;37795;53.236;5.704;2022-08-04T17:56:30;5.80;;;2.20;;
51718;SDS011;37795;53.236;5.704;2022-08-04T17:59:06;6.43;;;2.13;;
51718;SDS011;37795;53.236;5.704;2022-08-04T18:04:56;3.75;;;1.90;;
51718;SDS011;37795;53.236;5.704;2022-08-04T18:07:07;3.65;;;1.67;;
51718;SDS011;37795;53.236;5.704;2022-08-04T18:09:35;5.05;;;1.98;;
51718;SDS011;37795;53.236;5.704;2022-08-04T18:12:03;4.35;;;2.25;;
51718;SDS011;37795;53.236;5.704;2022-08-04T18:17:05;4.57;;;1.92;;
51718;SDS011;37795;53.236;5.704;2022-08-04T18:19:31;6.32;;;2.08;;
51718;SDS011;37795;53.236;5.704;2022-08-04T18:21:58;5.57;;;2.20;;
51718;SDS011;37795;53.236;5.704;2022-08-04T18:24:24;5.63;;;2.20;;
51718;SDS011;37795;53.236;5.704;2022-08-04T18:26:50;5.35;;;2.05;;
51718;SDS011;37795;53.236;5.704;2022-08-04T18:29:17;6.20;;;2.10;;
51718;SDS011;37795;53.236;5.704;2022-08-04T18:31:43;4.22;;;2.35;;
51718;SDS011;37795;53.236;5.704;2022-08-04T18:34:09;3.95;;;2.15;;
51718;SDS011;37795;53.236;5.704;2022-08-04T18:36:35;5.15;;;2.00;;
51718;SDS011;37795;53.236;5.704;2022-08-04T18:39:03;3.35;;;2.10;;
51718;SDS011;37795;53.236;5.704;2022-08-04T18:41:29;4.78;;;1.92;;
51718;SDS011;37795;53.236;5.704;2022-08-04T18:43:55;7.63;;;1.60;;
51718;SDS011;37795;53.236;5.704;2022-08-04T18:46:22;5.00;;;2.08;;
51718;SDS011;37795;53.236;5.704;2022-08-04T18:51:56;6.38;;;2.17;;
51718;SDS011;37795;53.236;5.704;2022-08-04T18:54:23;3.40;;;2.03;;
51718;SDS011;37795;53.236;5.704;2022-08-04T18:56:50;6.60;;;2.00;;
51718;SDS011;37795;53.236;5.704;2022-08-04T18:59:17;7.50;;;2.75;;
51718;SDS011;37795;53.236;5.704;2022-08-04T19:01:43;4.25;;;2.05;;
51718;SDS011;37795;53.236;5.704;2022-08-04T19:04:09;4.78;;;2.05;;
51718;SDS011;37795;53.236;5.704;2022-08-04T19:06:36;4.03;;;2.20;;
51718;SDS011;37795;53.236;5.704;2022-08-04T19:09:03;6.50;;;2.25;;
51718;SDS011;37795;53.236;5.704;2022-08-04T19:11:30;4.80;;;2.00;;
51718;SDS011;37795;53.236;5.704;2022-08-04T19:14:02;3.90;;;1.90;;
51718;SDS011;37795;53.236;5.704;2022-08-04T19:16:29;7.93;;;2.03;;
51718;SDS011;37795;53.236;5.704;2022-08-04T19:18:56;3.45;;;1.75;;
51718;SDS011;37795;53.236;5.704;2022-08-04T19:21:22;5.45;;;2.35;;
51718;SDS011;37795;53.236;5.704;2022-08-04T19:23:48;4.28;;;2.00;;
51718;SDS011;37795;53.236;5.704;2022-08-04T19:26:15;4.25;;;1.90;;
51718;SDS011;37795;53.236;5.704;2022-08-04T19:28:41;6.97;;;2.15;;
51718;SDS011;37795;53.236;5.704;2022-08-04T19:31:08;4.45;;;1.75;;
51718;SDS011;37795;53.236;5.704;2022-08-04T19:33:35;4.78;;;1.70;;
51718;SDS011;37795;53.236;5.704;2022-08-04T19:36:03;4.13;;;2.10;;
51718;SDS011;37795;53.236;5.704;2022-08-04T19:38:29;7.10;;;2.75;;
51718;SDS011;37795;53.236;5.704;2022-08-04T19:40:55;6.18;;;2.08;;
51718;SDS011;37795;53.236;5.704;2022-08-04T19:43:21;4.45;;;2.00;;
51718;SDS011;37795;53.236;5.704;2022-08-04T19:45:48;5.55;;;2.08;;
51718;SDS011;37795;53.236;5.704;2022-08-04T19:48:14;3.37;;;1.70;;
51718;SDS011;37795;53.236;5.704;2022-08-04T19:50:40;5.68;;;2.10;;
51718;SDS011;37795;53.236;5.704;2022-08-04T19:53:06;6.28;;;2.20;;
51718;SDS011;37795;53.236;5.704;2022-08-04T19:55:32;5.40;;;2.10;;
51718;SDS011;37795;53.236;5.704;2022-08-04T19:58:02;3.92;;;1.90;;